Steptoe Valley North, Nevada Weather observations

Data are for 10 minute period ending at time listed.
 Day   Time   Solar   Ave.   Ave.  Ave.  Vector  Max.   Baro.   Total    
  of    of     Rad.   Air    Rel.  Wind   Wind   Wind  Press.  Precip.   
Year   Day            Temp.  Hum.  Speed  Dir.   Gust                    
2015   (PST)  Kw/m2    F      %     mph   deg.    mph    mb.     in.     
-------------------------------------------------------------------------
  28    8:00   0.17   33.1    86    1.7    62     2.5   827.3    0.00 
  28    8:10   0.20   35.5    84    0.8    30     2.7   827.4    0.00 
  28    8:20   0.23   35.9    81    1.8   235     3.7   827.5    0.00 
  28    8:30   0.31   39.2    76    1.1   203     2.8   827.6    0.00 
  28    8:40   0.27   39.6    73    2.3   216     4.4   827.7    0.00 
  28    8:50   0.16   38.0    77    2.2   234     5.2   827.8    0.00 
  28    9:00   0.17   38.2    79    5.1   214     7.2   827.8    0.00 
  28    9:10   0.17   38.6    77    5.1   211     8.0   827.9    0.00 
  28    9:20   0.17   38.8    78    3.4   230     6.4   828.0    0.00 
  28    9:30   0.19   39.9    75    7.8   210    10.7   828.0    0.00 
  28    9:40   0.23   40.3    74    6.5   215    11.4   828.0    0.00 
  28    9:50   0.23   40.7    73    5.6   215     8.2   828.0    0.00 
  28   10:00   0.30   41.1    73    6.7   212     9.9   828.0    0.00 
  28   10:10   0.25   41.5    71    6.7   220     9.7   827.9    0.00 
  28   10:20   0.24   41.5    70    4.5   244     7.2   827.9    0.00 
  28   10:30   0.30   42.1    68    3.6   232     5.8   827.9    0.00 
  28   10:40   0.36   42.8    66    2.3   264     5.9   827.8    0.00 
  28   10:50   0.38   43.7    65    1.4   280     3.7   827.7    0.00 
  28   11:00   0.34   44.1    63    2.0   258     5.3   827.5    0.00 
  28   11:10   0.29   43.6    63    2.2   284     4.1   827.5    0.00 
  28   11:20   0.38   45.2    60    1.0   178     2.9   827.4    0.00 
  28   11:30   0.39   46.2    56    2.0   190     3.9   827.3    0.00 
  28   11:40   0.42   46.0    56    2.8   157     5.0   827.1    0.00 
  28   11:50   0.24   44.9    58    1.6   250     3.4   827.0    0.00 
  28   12:00   0.27   45.1    58    0.7   227     2.6   827.0    0.00 
  28   12:10   0.52   46.0    57    2.8   218     5.1   826.8    0.00 
  28   12:20   0.57   45.4    58    2.8   262     5.7   826.8    0.00 
  28   12:30   0.60   47.1    55    3.2   191     6.6   826.7    0.00 
  28   12:40   0.53   47.4    54    3.9   194     7.2   826.8    0.00 
  28   12:50   0.60   47.4    53    3.8   226     8.8   826.7    0.00 
  28   13:00   0.44   47.0    53    3.7   239     6.6   826.7    0.00 
  28   13:10   0.54   46.9    54    3.4    74     8.3   826.7    0.00 
  28   13:20   0.44   47.3    52    4.4    90    10.7   826.7    0.00 
  28   13:30   0.25   46.8    53    4.4   339     6.6   826.6    0.00 
  28   13:40   0.14   46.2    54    4.1   333     5.9   826.5    0.00 
  28   13:50   0.16   46.1    54    3.4   354     6.1   826.3    0.00 
  28   14:00   0.18   46.4    53    1.2     8     4.0   826.2    0.00 
  28   14:10   0.15   46.5    52    2.1   341     4.8   826.2    0.00 
  28   14:20   0.30   46.9    52    1.4   333     4.3   826.2    0.00 
  28   14:30   0.47   47.6    51    3.2    14     6.3   826.2    0.00 
  28   14:40   0.44   48.2    50    2.5    21     6.6   826.3    0.00 
  28   14:50   0.39   48.2    49    2.6   326     5.8   826.3    0.00 
  28   15:00   0.33   48.0    49    2.3    31     4.5   826.4    0.00 
  28   15:10   0.32   48.4    49    3.1    92     6.1   826.3    0.00 
  28   15:20   0.15   47.8    50    4.2    38     8.1   826.3    0.00 
  28   15:30   0.12   47.1    51    3.8    57     5.8   826.2    0.00 
  28   15:40   0.13   47.4    51    3.4    49     5.5   826.2    0.00 
  28   15:50   0.07   47.2    51    3.0    22     5.1   826.2    0.00 
  28   16:00   0.04   46.8    52    3.2    25     4.3   826.2    0.00 
  28   16:10   0.04   45.7    54    3.8    46     4.9   826.2    0.00 
  28   16:20   0.03   44.9    56    4.5    54     5.8   826.3    0.00 
  28   16:30   0.02   44.7    57    4.6    61     6.3   826.5    0.00 
  28   16:40   0.01   43.7    58    4.3    54     5.5   826.5    0.00 
  28   16:50   0.01   42.0    60    3.3    52     4.5   826.7    0.00 
  28   17:00   0.00   41.1    62    1.8    50     2.3   826.9    0.00 
  28   17:10   0.00   40.1    64    2.0    32     2.6   827.0    0.00 
  28   17:20   0.00   39.5    66    3.2   353     4.5   827.2    0.00 
  28   17:30   0.00   40.4    65    2.4    12     2.8   827.3    0.00 
  28   17:40   0.00   40.4    65    3.2     8     4.4   827.3    0.00 
  28   17:50   0.00   39.9    66    4.2    11     4.7   827.3    0.00 
  28   18:00   0.00   38.9    68    3.8    45     4.5   827.4    0.00 
  28   18:10   0.00   39.4    68    5.3    74     6.9   827.4    0.00 
  28   18:20   0.00   40.0    65    5.5    65     7.2   827.4    0.00 
  28   18:30   0.00   37.9    68    6.0    60     7.5   827.4    0.00 
  28   18:40   0.00   36.3    72    6.3    70     7.9   827.4    0.00 
  28   18:50   0.00   34.1    74    5.8    62     6.9   827.5    0.00 
  28   19:00   0.00   32.2    78    4.9    56     5.7   827.6    0.00 
  28   19:10   0.00   30.5    81    5.4    57     7.3   827.6    0.00 
  28   19:20   0.00   31.4    79    4.3    58     5.4   827.7    0.00 
  28   19:30   0.00   27.6    82    3.0   330     4.6   827.8    0.00 
  28   19:40   0.00   29.1    85    3.1   323     4.5   827.9    0.00 
  28   19:50   0.00   29.5    83    4.6   332     5.6   827.9    0.00 
  28   20:00   0.00   28.0    84    4.6     9     5.0   828.0    0.00 
  28   20:10   0.00   27.4    86    5.6    29     6.4   828.1    0.00 
  28   20:20   0.00   27.0    86    5.4    50     6.4   828.2    0.00 
  28   20:30   0.00   29.1    87    6.3    61     7.5   828.3    0.00 
  28   20:40   0.00   31.3    82    5.6    48     6.9   828.3    0.00 
  28   20:50   0.00   29.8    83    6.1    40     7.0   828.2    0.00 
  28   21:00   0.00   28.9    84    5.9    44     6.7   828.3    0.00 
  28   21:10   0.00   27.7    85    6.1    45     6.9   828.4    0.00 
  28   21:20   0.00   28.0    86    5.9    41     7.4   828.5    0.00 
  28   21:30   0.00   29.2    86    7.0    40     8.3   828.5    0.00 
  28   21:40   0.00   30.7    84    6.7    38     8.5   828.5    0.00 
  28   21:50   0.00   30.5    83    5.6    35     6.6   828.6    0.00 
  28   22:00   0.00   29.4    84    4.9    34     5.9   828.7    0.00 
  28   22:10   0.00   27.1    85    5.5    35     6.1   828.8    0.00 
  28   22:20   0.00   26.0    89    5.1    30     6.4   828.9    0.00 
  28   22:30   0.00   25.7    89    4.0    38     5.0   829.0    0.00 
  28   22:40   0.00   25.3    89    2.2   337     5.1   829.1    0.00 
  28   22:50   0.00   25.7    90    4.8   318     5.7   829.2    0.00 
  28   23:00   0.00   24.2    88    5.8   332     6.9   829.2    0.00 
  28   23:10   0.00   23.6    88    5.6   341     6.4   829.2    0.00 
  28   23:20   0.00   22.4    89    4.2     2     5.5   829.2    0.00 
  28   23:30   0.00   21.7    91    5.1    20     6.2   829.2    0.00 
  28   23:40   0.00   22.4    92    5.5    18     6.2   829.2    0.00 
  28   23:50   0.00   22.7    93    6.6     4     7.7   829.1    0.00 
  29    0:00   0.00   23.1    92    5.7     7     7.5   829.1    0.00 
  29    0:10   0.00   24.0    93    3.7    32     4.7   829.2    0.00 
  29    0:20   0.00   25.2    92    4.6    29     6.1   829.2    0.00 
  29    0:30   0.00   25.0    90    5.7    45     6.9   829.1    0.00 
  29    0:40   0.00   25.3    92    6.4    42     7.5   829.0    0.00 
  29    0:50   0.00   26.9    92    6.4    18     8.3   828.9    0.00 
  29    1:00   0.00   25.9    88    5.0     6     6.0   829.0    0.00 
  29    1:10   0.00   24.3    90    3.7    21     6.1   829.1    0.00 
  29    1:20   0.00   25.2    91    5.6    24     7.2   829.1    0.00 
  29    1:30   0.00   25.2    91    6.3    29     7.1   829.1    0.00 
  29    1:40   0.00   24.6    91    5.5    34     6.9   829.2    0.00 
  29    1:50   0.00   24.4    92    5.1    20     6.2   829.1    0.00 
  29    2:00   0.00   25.1    92    4.4    21     5.2   829.2    0.00 
  29    2:10   0.00   24.7    91    4.5    17     5.4   829.2    0.00 
  29    2:20   0.00   23.6    92    6.0    32     6.9   829.2    0.00 
  29    2:30   0.00   26.1    94    6.8    54     8.3   829.2    0.00 
  29    2:40   0.00   28.0    92    5.9    54     7.9   829.2    0.00 
  29    2:50   0.00   25.8    89    3.3    24     5.4   829.1    0.00 
  29    3:00   0.00   24.3    91    4.4     9     5.8   828.9    0.00 
  29    3:10   0.00   23.6    92    6.4    16     7.5   828.8    0.00 
  29    3:20   0.00   24.6    93    6.3    22     7.2   828.8    0.00 
  29    3:30   0.00   24.5    92    5.6    39     7.5   828.7    0.00 
  29    3:40   0.00   23.1    92    5.9    29     6.9   828.6    0.00 
  29    3:50   0.00   24.4    94    6.9    23     8.0   828.6    0.00 
  29    4:00   0.00   25.4    93    7.4    29     9.2   828.4    0.00 
  29    4:10   0.00   25.7    93    7.9    30     9.6   828.3    0.00 
  29    4:20   0.00   23.4    91    6.1   342     7.9   828.3    0.00 
  29    4:30   0.00   23.0    94    8.0   345    11.3   828.2    0.00 
  29    4:40   0.00   23.9    93    7.7   343    10.7   828.1    0.00 
  29    4:50   0.00   23.7    94    6.6   355     8.9   828.1    0.00 
  29    5:00   0.00   24.5    94    6.9   346     8.6   828.0    0.00 
  29    5:10   0.00   25.0    93    6.9   349     9.1   827.9    0.00 
  29    5:20   0.00   24.9    93    5.8   348     7.6   827.9    0.00 
  29    5:30   0.00   25.3    93    5.4   357     7.2   827.9    0.00 
  29    5:40   0.00   25.4    93    5.7   355     7.7   827.9    0.00 
  29    5:50   0.00   25.4    93    6.4   350     8.3   828.0    0.00 
  29    6:00   0.00   26.2    93    5.6   346     6.8   828.1    0.00 
  29    6:10   0.00   27.9    94    5.6   342     7.4   828.2    0.00 
  29    6:20   0.00   28.8    93    4.8   359     7.4   828.3    0.00 
  29    6:30   0.00   28.9    92    3.5    29     7.0   828.4    0.00 
  29    6:40   0.00   28.3    92    3.4    32     4.5   828.4    0.00 
  29    6:50   0.00   28.6    93    4.1     5     5.9   828.5    0.00 
  29    7:00   0.00   28.8    93    5.0    10     6.2   828.5    0.00 
  29    7:10   0.01   28.7    93    5.2    16     6.5   828.5    0.00 
  29    7:20   0.01   28.7    93    6.0    12     8.3   828.6    0.00 
  29    7:30   0.02   28.9    93    5.4    15     7.4   828.6    0.00 
  29    7:40   0.02   29.3    93    4.8    20     6.0   828.7    0.00 
  29    7:50   0.04   29.6    92    5.0    30     6.9   828.7    0.00 

Return to Steptoe Valley North graphs page.


Western Regional Climate Center,wrcc@dri.edu